Time;durP1;ratioP1;P1;durP2;ratioP2;P2;SDS_P1;SDS_P2;PMS_P1;PMS_P2;Temp;Humidity;BMP_temperature;BMP_pressure;BME280_temperature;BME280_humidity;BME280_pressure;Samples;Min_cycle;Max_cycle;Signal;HPM_P1;HPM_P2
2021/03/03 00:01:51;;;;;;;10.18;2.83;;;;;;;22.91;46.49;102826.34;5038430;28;20036;-60
2021/03/03 00:04:17;;;;;;;7.68;2.60;;;;;;;22.92;46.10;102821.72;5038588;28;20388;-60
2021/03/03 00:06:42;;;;;;;9.05;3.10;;;;;;;22.93;46.04;102829.78;5038562;28;20031;-60
2021/03/03 00:09:07;;;;;;;10.88;2.33;;;;;;;22.84;45.63;102819.72;5038288;28;20033;-60
2021/03/03 00:11:32;;;;;;;7.97;2.45;;;;;;;22.88;45.48;102818.44;5038608;28;20044;-60
2021/03/03 00:13:58;;;;;;;8.90;2.47;;;;;;;22.78;45.01;102809.34;5038015;28;20048;-60
2021/03/03 00:16:23;;;;;;;9.55;2.65;;;;;;;22.86;44.58;102814.97;5038155;28;20030;-60
2021/03/03 00:18:48;;;;;;;7.03;2.20;;;;;;;22.81;45.02;102818.13;5037594;28;20475;-60
2021/03/03 00:21:14;;;;;;;7.80;3.25;;;;;;;22.78;44.82;102817.56;5038104;28;20036;-60
2021/03/03 00:23:40;;;;;;;7.75;2.08;;;;;;;22.79;45.16;102820.16;5038165;28;20486;-59
2021/03/03 00:26:05;;;;;;;7.10;2.10;;;;;;;22.82;44.88;102810.78;5037514;28;20025;-59
2021/03/03 00:28:30;;;;;;;5.47;2.22;;;;;;;22.82;44.92;102808.06;5034498;28;20472;-60
2021/03/03 00:30:55;;;;;;;8.23;2.42;;;;;;;22.88;45.32;102812.94;5034926;28;20108;-60
2021/03/03 00:33:21;;;;;;;6.25;2.40;;;;;;;22.86;44.82;102812.25;5035382;28;20029;-59
2021/03/03 00:35:47;;;;;;;8.80;2.10;;;;;;;22.83;44.70;102807.03;5035129;28;20032;-60
2021/03/03 00:38:12;;;;;;;8.48;2.78;;;;;;;22.90;46.36;102808.16;5035045;28;20026;-59
2021/03/03 00:40:37;;;;;;;9.27;2.30;;;;;;;22.96;47.92;102812.16;5035194;28;20056;-59
2021/03/03 00:43:02;;;;;;;6.72;2.33;;;;;;;22.96;44.87;102802.03;5034642;28;20563;-59
2021/03/03 00:45:28;;;;;;;6.47;2.50;;;;;;;22.86;46.16;102792.19;5035120;28;20029;-59
2021/03/03 00:47:53;;;;;;;7.70;2.78;;;;;;;22.74;47.40;102797.84;5034372;28;20048;-59
2021/03/03 00:50:19;;;;;;;12.30;2.80;;;;;;;22.76;47.51;102797.69;5034864;28;20052;-59
2021/03/03 00:52:44;;;;;;;8.65;3.00;;;;;;;22.79;48.24;102789.13;5034676;28;20021;-59
2021/03/03 00:55:10;;;;;;;11.20;3.30;;;;;;;22.79;47.46;102780.91;5035045;28;20118;-60
2021/03/03 00:57:35;;;;;;;7.75;2.70;;;;;;;22.80;47.13;102779.88;5034774;28;20026;-59
2021/03/03 01:00:01;;;;;;;9.57;3.25;;;;;;;22.70;47.26;102779.13;5034122;28;20024;-59
2021/03/03 01:02:26;;;;;;;11.38;2.90;;;;;;;22.68;46.75;102768.31;5034796;28;20029;-59
2021/03/03 01:04:51;;;;;;;10.75;2.92;;;;;;;22.62;46.11;102774.38;5034364;28;20052;-59
2021/03/03 01:07:17;;;;;;;7.72;2.13;;;;;;;22.59;45.84;102776.56;5034209;28;20028;-59
2021/03/03 01:09:42;;;;;;;9.85;3.25;;;;;;;22.62;46.45;102776.25;5034520;28;20116;-60
2021/03/03 01:12:07;;;;;;;7.80;2.33;;;;;;;22.60;46.07;102770.94;5034628;28;20075;-59
2021/03/03 01:14:33;;;;;;;8.50;2.83;;;;;;;22.58;46.02;102772.09;5034600;28;20032;-59
2021/03/03 01:16:58;;;;;;;8.80;2.58;;;;;;;22.63;46.22;102775.25;5033719;28;20050;-59
2021/03/03 01:19:23;;;;;;;8.77;2.45;;;;;;;22.59;46.05;102771.09;5034185;28;20436;-60
2021/03/03 01:21:49;;;;;;;10.27;2.40;;;;;;;22.61;45.76;102763.56;5033916;28;20468;-59
2021/03/03 01:24:14;;;;;;;6.25;2.80;;;;;;;22.60;45.52;102767.31;5034250;28;20064;-60
2021/03/03 01:26:40;;;;;;;8.40;2.78;;;;;;;22.64;46.27;102763.25;5034312;28;20051;-59
2021/03/03 01:29:06;;;;;;;7.35;2.30;;;;;;;22.58;46.04;102753.78;5033911;28;20068;-59
2021/03/03 01:31:32;;;;;;;7.05;1.95;;;;;;;22.59;45.77;102750.03;5034276;28;20025;-59
2021/03/03 01:33:57;;;;;;;5.50;2.10;;;;;;;22.57;45.62;102751.19;5034169;28;20097;-59
2021/03/03 01:36:23;;;;;;;9.80;2.55;;;;;;;22.56;46.11;102750.34;5034173;28;20527;-59
2021/03/03 01:38:48;;;;;;;8.43;3.70;;;;;;;22.56;45.50;102744.00;5033474;28;20071;-60
2021/03/03 01:41:14;;;;;;;6.47;2.30;;;;;;;22.54;45.39;102738.66;5034071;28;20411;-60
2021/03/03 01:43:39;;;;;;;7.40;2.60;;;;;;;22.56;45.34;102728.41;5034332;28;20480;-60
2021/03/03 01:46:04;;;;;;;8.38;2.45;;;;;;;22.56;45.75;102727.53;5032278;28;20026;-59
2021/03/03 01:48:29;;;;;;;6.18;2.03;;;;;;;22.58;46.92;102720.03;5032405;28;20029;-59
2021/03/03 01:50:55;;;;;;;7.65;2.00;;;;;;;22.59;46.53;102721.75;5033448;28;20461;-59
2021/03/03 01:53:20;;;;;;;6.85;2.28;;;;;;;22.61;46.58;102720.56;5033863;28;20025;-60
2021/03/03 01:55:45;;;;;;;8.68;2.80;;;;;;;22.72;48.89;102711.28;5033693;28;20025;-60
2021/03/03 01:58:11;;;;;;;6.57;2.38;;;;;;;22.76;47.76;102708.03;5033630;28;20030;-59
2021/03/03 02:00:36;;;;;;;10.73;2.78;;;;;;;22.83;49.06;102705.56;5033651;28;20485;-59
2021/03/03 02:03:02;;;;;;;7.90;2.60;;;;;;;22.73;48.30;102699.28;5033371;28;20079;-60
2021/03/03 02:05:28;;;;;;;8.60;2.95;;;;;;;22.64;50.11;102705.69;5033888;28;20029;-59
2021/03/03 02:08:06;;;;;;;7.20;2.35;;;;;;;22.64;50.38;102691.97;5033340;28;20029;-60
2021/03/03 02:10:39;;;;;;;10.30;3.00;;;;;;;22.71;50.09;102693.09;5033487;28;20056;-59
2021/03/03 02:13:09;;;;;;;10.95;2.92;;;;;;;22.75;50.11;102683.53;5033221;28;20029;-59
2021/03/03 02:15:37;;;;;;;9.00;2.40;;;;;;;22.72;49.45;102681.09;5033422;28;20057;-59
2021/03/03 02:18:05;;;;;;;8.00;2.95;;;;;;;22.69;49.41;102675.94;5032939;28;20604;-59
2021/03/03 02:20:46;;;;;;;8.35;2.15;;;;;;;22.61;49.12;102676.69;5033274;28;20069;-59
2021/03/03 02:23:17;;;;;;;8.02;2.63;;;;;;;22.50;48.89;102664.06;5031976;28;20055;-60
2021/03/03 02:25:44;;;;;;;7.93;2.45;;;;;;;22.50;47.53;102669.56;5033445;28;20064;-59
2021/03/03 02:28:11;;;;;;;7.22;2.35;;;;;;;22.42;48.37;102672.22;5032998;28;20381;-59
2021/03/03 02:30:39;;;;;;;7.13;2.80;;;;;;;22.40;46.83;102663.31;5033099;28;20159;-60
2021/03/03 02:33:05;;;;;;;9.50;3.13;;;;;;;22.41;47.36;102659.53;5032689;28;20044;-60
2021/03/03 02:35:31;;;;;;;8.38;2.78;;;;;;;22.36;46.81;102664.63;5033101;28;20064;-59
2021/03/03 02:37:58;;;;;;;6.47;2.92;;;;;;;22.33;46.48;102658.56;5032582;28;20033;-59
2021/03/03 02:40:25;;;;;;;6.25;2.45;;;;;;;22.35;46.58;102657.44;5032997;28;20022;-60
2021/03/03 02:42:51;;;;;;;6.88;2.55;;;;;;;22.35;46.21;102660.16;5032464;28;20050;-59
2021/03/03 02:45:19;;;;;;;10.65;2.63;;;;;;;22.36;46.31;102656.41;5032923;28;20022;-59
2021/03/03 02:47:46;;;;;;;8.82;2.60;;;;;;;22.38;46.29;102653.50;5031112;28;20040;-59
2021/03/03 02:50:13;;;;;;;7.05;2.35;;;;;;;22.40;46.01;102655.06;5031930;28;20057;-59
2021/03/03 02:52:53;;;;;;;10.55;2.88;;;;;;;22.37;45.40;102636.22;5032545;28;20041;-59
2021/03/03 02:55:20;;;;;;;10.10;2.65;;;;;;;22.39;46.19;102631.44;5031516;28;20044;-59
2021/03/03 02:57:48;;;;;;;7.18;2.08;;;;;;;22.41;45.09;102632.13;5032368;28;20029;-59
2021/03/03 03:00:20;;;;;;;8.50;2.42;;;;;;;22.34;45.19;102619.19;5018387;28;20036;-59
2021/03/03 03:02:49;;;;;;;6.47;2.00;;;;;;;22.41;44.93;102620.31;5032525;28;20025;-60
2021/03/03 03:05:16;;;;;;;9.02;2.58;;;;;;;22.40;44.92;102624.94;5032647;28;20025;-60
2021/03/03 03:07:47;;;;;;;7.05;2.22;;;;;;;22.39;45.38;102617.72;5032584;28;20128;-59
2021/03/03 03:10:15;;;;;;;6.40;2.13;;;;;;;22.35;45.13;102601.75;5032456;28;20021;-59
2021/03/03 03:12:48;;;;;;;6.53;2.33;;;;;;;22.46;46.08;102602.38;5031277;28;20507;-59
2021/03/03 03:15:17;;;;;;;6.30;1.80;;;;;;;22.47;46.17;102595.00;5032603;28;20021;-59
2021/03/03 03:17:46;;;;;;;6.25;2.08;;;;;;;22.46;45.75;102596.88;5032360;28;20025;-60
2021/03/03 03:20:15;;;;;;;6.53;2.00;;;;;;;22.51;46.99;102591.81;5032511;28;20036;-59
2021/03/03 03:22:41;;;;;;;6.38;1.70;;;;;;;22.58;46.69;102577.47;5032444;28;20025;-59
2021/03/03 03:25:07;;;;;;;5.28;1.67;;;;;;;22.64;46.56;102571.34;5032323;28;20031;-60
2021/03/03 03:27:33;;;;;;;4.95;2.20;;;;;;;22.71;49.02;102561.50;5032825;28;20049;-60
2021/03/03 03:29:59;;;;;;;8.63;2.45;;;;;;;22.79;47.97;102575.25;5032113;28;20099;-59
2021/03/03 03:32:25;;;;;;;9.95;2.60;;;;;;;22.75;47.95;102568.38;5032511;28;20131;-59
2021/03/03 03:34:50;;;;;;;7.50;2.80;;;;;;;22.66;46.97;102569.31;5031655;28;20104;-60
2021/03/03 03:37:18;;;;;;;10.68;3.47;;;;;;;22.49;48.11;102562.81;5032395;28;20456;-59
2021/03/03 03:39:43;;;;;;;8.90;2.30;;;;;;;22.43;48.91;102552.50;5032251;28;20084;-60
2021/03/03 03:42:10;;;;;;;7.60;2.75;;;;;;;22.46;48.67;102554.91;5032026;28;20513;-59
2021/03/03 03:44:37;;;;;;;7.55;2.42;;;;;;;22.51;48.62;102549.84;5032328;28;20052;-59
2021/03/03 03:47:03;;;;;;;8.98;2.80;;;;;;;22.47;48.07;102526.50;5031535;28;20369;-59
2021/03/03 03:49:29;;;;;;;8.43;2.67;;;;;;;22.59;47.49;102540.81;5032254;28;20024;-59
2021/03/03 03:51:54;;;;;;;8.23;2.58;;;;;;;22.49;48.59;102540.88;5031688;28;20025;-59
2021/03/03 03:54:19;;;;;;;9.98;3.20;;;;;;;22.40;47.34;102454.16;5032132;28;20029;-59
2021/03/03 03:56:45;;;;;;;10.35;3.15;;;;;;;22.35;47.35;102454.66;5032067;28;20017;-59
2021/03/03 03:59:11;;;;;;;6.80;2.47;;;;;;;22.30;47.24;102447.91;5032131;28;20025;-59
2021/03/03 04:01:36;;;;;;;6.63;2.13;;;;;;;22.21;46.23;102560.19;5033483;28;20018;-60
2021/03/03 04:04:01;;;;;;;9.07;2.88;;;;;;;22.25;45.71;102533.31;5035659;28;20493;-59
2021/03/03 04:06:27;;;;;;;9.25;2.60;;;;;;;22.20;46.39;102530.19;5036184;28;20488;-60
2021/03/03 04:08:52;;;;;;;7.95;2.63;;;;;;;22.20;46.57;102520.09;5035546;28;20049;-60
2021/03/03 04:11:17;;;;;;;9.10;2.85;;;;;;;22.26;46.67;102517.75;5035735;28;20368;-59
2021/03/03 04:13:42;;;;;;;8.63;2.63;;;;;;;22.21;47.22;102502.66;5035663;28;20021;-59
2021/03/03 04:16:08;;;;;;;6.78;2.30;;;;;;;22.19;47.27;102495.59;5035202;28;20472;-59
2021/03/03 04:18:33;;;;;;;10.27;2.78;;;;;;;22.13;47.23;102485.25;5034980;28;20076;-59
2021/03/03 04:20:58;;;;;;;7.63;2.05;;;;;;;22.17;46.75;102492.13;5035025;28;20030;-59
2021/03/03 04:23:24;;;;;;;6.97;2.10;;;;;;;22.21;47.67;102493.56;5033941;28;20051;-59
2021/03/03 04:25:49;;;;;;;9.55;2.92;;;;;;;22.20;48.34;102486.38;5035322;28;20044;-60
2021/03/03 04:28:14;;;;;;;6.10;2.00;;;;;;;22.18;48.21;102480.19;5035381;28;20029;-59
2021/03/03 04:30:40;;;;;;;5.93;2.47;;;;;;;22.21;48.13;102471.66;5035291;28;20035;-59
2021/03/03 04:33:05;;;;;;;5.93;2.42;;;;;;;22.20;47.42;102470.78;5035169;28;20479;-60
2021/03/03 04:35:31;;;;;;;8.98;2.30;;;;;;;22.21;47.76;102474.41;5034026;28;20056;-59
2021/03/03 04:37:56;;;;;;;8.15;2.10;;;;;;;22.22;47.64;102473.38;5034700;28;20021;-59
2021/03/03 04:40:21;;;;;;;7.57;2.45;;;;;;;22.18;48.10;102459.13;5035479;28;20116;-60
2021/03/03 04:42:47;;;;;;;8.75;2.25;;;;;;;22.28;48.53;102469.13;5034765;28;20051;-59
2021/03/03 04:45:13;;;;;;;10.77;2.65;;;;;;;22.24;48.06;102449.41;5035120;28;20472;-59
2021/03/03 04:47:39;;;;;;;5.97;2.00;;;;;;;22.28;47.38;102456.28;5034544;28;20043;-60
2021/03/03 04:50:06;;;;;;;6.55;1.98;;;;;;;22.31;47.28;102450.47;5034406;28;20108;-59
2021/03/03 04:52:31;;;;;;;6.47;1.85;;;;;;;22.37;48.70;102455.34;5034971;28;20475;-59
2021/03/03 04:54:57;;;;;;;8.10;2.10;;;;;;;22.41;48.86;102454.00;5034674;28;20029;-59
2021/03/03 04:57:22;;;;;;;6.28;1.90;;;;;;;22.46;49.20;102451.63;5033662;28;20448;-60
2021/03/03 04:59:47;;;;;;;8.75;2.00;;;;;;;22.52;47.83;102448.28;5034602;28;20021;-59
2021/03/03 05:02:13;;;;;;;8.70;2.20;;;;;;;23.23;49.72;102454.53;5035017;28;20021;-59
2021/03/03 05:04:38;;;;;;;8.90;2.45;;;;;;;23.65;46.98;102446.25;5034765;28;20032;-60
2021/03/03 05:07:03;;;;;;;8.30;2.05;;;;;;;23.81;46.91;102434.47;5034488;28;20029;-60
2021/03/03 05:09:29;;;;;;;8.25;2.65;;;;;;;23.83;45.18;102424.16;5034665;28;20428;-59
2021/03/03 05:11:54;;;;;;;7.00;2.38;;;;;;;23.99;45.75;102421.41;5034507;28;20488;-60
2021/03/03 05:14:19;;;;;;;7.10;2.50;;;;;;;24.07;45.12;102418.69;5033847;28;20064;-59
2021/03/03 05:16:45;;;;;;;10.15;3.30;;;;;;;24.22;45.87;102419.72;5034022;28;20079;-60
2021/03/03 05:19:10;;;;;;;9.90;2.78;;;;;;;24.23;43.93;102404.94;5034406;28;20096;-59
2021/03/03 05:21:36;;;;;;;6.68;2.63;;;;;;;24.16;42.49;102403.03;5034199;28;20053;-59
2021/03/03 05:24:01;;;;;;;8.68;2.50;;;;;;;23.85;44.98;102397.38;5034150;28;20029;-59
2021/03/03 05:26:26;;;;;;;8.05;2.35;;;;;;;23.79;44.97;102409.06;5034281;28;20029;-59
2021/03/03 05:28:51;;;;;;;6.78;2.10;;;;;;;23.89;44.56;102404.28;5033946;28;20025;-59
2021/03/03 05:31:17;;;;;;;7.63;2.60;;;;;;;23.88;43.88;102402.56;5034234;28;20152;-60
2021/03/03 05:33:43;;;;;;;8.55;2.47;;;;;;;23.86;44.48;102396.38;5034144;28;20108;-59
2021/03/03 05:36:10;;;;;;;10.40;2.65;;;;;;;23.83;44.51;102393.94;5033915;28;20025;-59
2021/03/03 05:38:37;;;;;;;9.23;2.85;;;;;;;23.82;43.07;102393.09;5034127;28;20080;-59
2021/03/03 05:41:04;;;;;;;7.45;2.53;;;;;;;23.72;43.96;102383.31;5033594;28;20027;-59
2021/03/03 05:43:30;;;;;;;6.18;2.45;;;;;;;23.74;43.94;102386.75;5032782;28;20480;-59
2021/03/03 05:45:57;;;;;;;7.70;2.63;;;;;;;23.70;43.53;102384.34;5033701;28;20072;-60
2021/03/03 05:48:23;;;;;;;8.73;2.80;;;;;;;23.74;43.69;102384.00;5033534;28;20037;-59
2021/03/03 05:51:00;;;;;;;7.03;2.22;;;;;;;23.82;43.81;102375.75;5033456;28;20021;-59
2021/03/03 05:53:27;;;;;;;8.07;2.00;;;;;;;23.82;42.85;102375.75;5033788;28;20021;-59
2021/03/03 05:55:57;;;;;;;7.75;2.30;;;;;;;23.83;42.58;102371.97;5033524;28;20056;-59
2021/03/03 05:58:24;;;;;;;8.15;2.72;;;;;;;23.84;42.77;102374.53;5033502;28;20116;-59
2021/03/03 06:00:50;;;;;;;6.25;2.67;;;;;;;23.85;42.22;102364.41;5033265;28;20549;-59
2021/03/03 06:03:19;;;;;;;8.32;2.83;;;;;;;23.77;42.41;102367.19;5033590;28;20038;-59
2021/03/03 06:05:48;;;;;;;8.27;2.53;;;;;;;23.91;42.30;102358.25;5033501;28;20089;-59
2021/03/03 06:08:19;;;;;;;7.35;2.33;;;;;;;23.93;42.26;102356.19;5033392;28;20022;-59
2021/03/03 06:10:45;;;;;;;5.93;1.80;;;;;;;23.97;42.31;102358.41;5033266;28;20604;-60
2021/03/03 06:13:11;;;;;;;8.25;1.95;;;;;;;23.99;41.77;102345.34;5033302;28;20037;-59
2021/03/03 06:15:37;;;;;;;8.63;2.22;;;;;;;24.14;42.01;102359.25;5033251;28;20068;-59
2021/03/03 06:18:07;;;;;;;5.05;2.20;;;;;;;24.23;41.27;102352.72;5032468;28;20025;-60
2021/03/03 06:20:39;;;;;;;5.88;2.25;;;;;;;24.43;41.68;102346.88;5033056;28;20429;-58
2021/03/03 06:23:19;;;;;;;6.72;2.28;;;;;;;24.33;40.86;102335.22;5033004;28;20362;-59
2021/03/03 06:25:47;;;;;;;7.70;2.38;;;;;;;24.25;40.98;102328.69;5032131;28;20029;-60
2021/03/03 06:28:33;;;;;;;7.28;1.90;;;;;;;24.21;42.17;102332.81;5033129;28;20036;-60
2021/03/03 06:30:58;;;;;;;4.85;1.60;;;;;;;24.16;42.05;102317.88;5032735;28;20029;-59
2021/03/03 06:33:25;;;;;;;6.72;1.70;;;;;;;24.20;42.49;102325.59;5033105;28;20044;-58
2021/03/03 06:35:51;;;;;;;4.93;2.08;;;;;;;24.26;42.34;102313.91;5032681;28;20032;-60
2021/03/03 06:38:25;;;;;;;6.63;2.30;;;;;;;24.16;43.48;102302.22;5032946;28;20030;-59
2021/03/03 06:41:06;;;;;;;4.80;1.67;;;;;;;24.25;43.23;102297.59;5032534;28;20468;-59
2021/03/03 06:43:31;;;;;;;6.80;1.83;;;;;;;24.30;44.08;102301.56;5033026;28;20039;-59
2021/03/03 06:46:15;;;;;;;4.70;2.17;;;;;;;24.25;43.36;102284.72;5032388;28;20100;-59
2021/03/03 06:48:41;;;;;;;7.15;2.70;;;;;;;24.32;43.19;102295.03;5032815;28;20112;-60
2021/03/03 06:51:23;;;;;;;7.13;2.50;;;;;;;24.39;44.51;102280.41;5031486;28;20064;-59
2021/03/03 06:53:50;;;;;;;5.50;1.60;;;;;;;24.46;43.43;102288.78;5030848;28;20049;-59
2021/03/03 06:56:31;;;;;;;7.15;1.80;;;;;;;24.30;43.04;102282.31;5031591;28;20061;-60
2021/03/03 06:59:08;;;;;;;11.98;2.58;;;;;;;24.38;44.70;102272.34;5030113;28;20017;-60
2021/03/03 07:01:34;;;;;;;8.35;1.85;;;;;;;24.30;43.43;102270.47;5015439;28;20241;-60
2021/03/03 07:04:00;;;;;;;9.77;2.47;;;;;;;24.52;43.07;102269.72;5025856;28;20373;-60
2021/03/03 07:06:31;;;;;;;9.02;2.28;;;;;;;24.40;43.12;102267.53;5027956;28;20022;-62
2021/03/03 07:08:59;;;;;;;6.55;1.70;;;;;;;24.45;42.97;102259.59;5030961;28;20017;-60
2021/03/03 07:11:27;;;;;;;6.43;1.85;;;;;;;24.26;45.15;102263.56;5036917;28;20033;-61
2021/03/03 07:13:52;;;;;;;8.68;2.13;;;;;;;24.26;44.32;102253.44;5028527;28;20108;-61
2021/03/03 07:16:18;;;;;;;8.13;1.73;;;;;;;24.07;44.02;102253.84;5026179;28;20112;-61
2021/03/03 07:18:43;;;;;;;7.07;2.30;;;;;;;24.10;43.71;102238.91;5019867;28;20045;-62
2021/03/03 07:21:08;;;;;;;7.05;2.25;;;;;;;24.13;42.76;102236.66;5030407;28;20029;-62
2021/03/03 07:23:42;;;;;;;5.22;1.65;;;;;;;24.05;43.41;102236.69;5025918;28;20396;-61
2021/03/03 07:26:09;;;;;;;4.93;1.58;;;;;;;24.01;42.91;102244.41;5035742;28;20035;-61
2021/03/03 07:28:36;;;;;;;7.18;2.60;;;;;;;24.06;41.79;102232.91;5029200;28;20033;-62
2021/03/03 07:31:02;;;;;;;5.00;1.85;;;;;;;24.13;42.20;102236.66;5031101;28;20481;-61
2021/03/03 07:33:27;;;;;;;4.72;1.95;;;;;;;24.10;42.04;102226.00;5030044;28;20032;-61
2021/03/03 07:35:52;;;;;;;7.97;1.98;;;;;;;24.13;41.90;102225.66;5024211;28;20049;-62
2021/03/03 07:38:19;;;;;;;7.35;2.05;;;;;;;24.13;42.29;102225.66;5028788;28;20299;-61
2021/03/03 07:40:45;;;;;;;7.93;2.47;;;;;;;24.19;41.64;102224.97;5024445;28;20044;-61
2021/03/03 07:43:12;;;;;;;6.15;1.85;;;;;;;24.10;41.91;102212.28;5036321;28;20050;-61
2021/03/03 07:45:40;;;;;;;7.97;2.17;;;;;;;24.35;42.25;102220.44;5035051;28;20025;-61
2021/03/03 07:48:06;;;;;;;7.30;2.60;;;;;;;24.35;41.67;102217.69;5021018;28;20029;-61
2021/03/03 07:50:32;;;;;;;7.50;1.88;;;;;;;24.41;41.38;102206.00;5032490;28;20052;-61
2021/03/03 07:52:57;;;;;;;9.63;2.28;;;;;;;24.50;42.08;102214.03;5031625;28;20473;-62
2021/03/03 07:55:23;;;;;;;5.97;2.03;;;;;;;24.39;41.32;102202.59;5031789;28;20025;-61
2021/03/03 07:57:52;;;;;;;8.50;2.70;;;;;;;24.30;41.81;102199.84;5038234;28;20017;-62
2021/03/03 08:00:30;;;;;;;6.40;2.25;;;;;;;24.46;41.65;102198.94;5034670;28;20022;-62
2021/03/03 08:02:56;;;;;;;6.88;2.03;;;;;;;24.41;41.53;102203.25;5032416;28;20021;-62
2021/03/03 08:05:29;;;;;;;7.60;2.42;;;;;;;24.55;41.14;102202.50;5024897;28;20372;-62
2021/03/03 08:08:28;;;;;;;6.45;2.00;;;;;;;24.43;41.44;102201.19;5017364;28;20037;-61
2021/03/03 08:10:59;;;;;;;5.30;1.95;;;;;;;24.52;41.44;102200.09;4989611;28;20517;-62
2021/03/03 08:13:34;;;;;;;5.78;1.73;;;;;;;24.08;41.73;102197.88;4987265;28;20153;-62
2021/03/03 08:16:04;;;;;;;7.38;1.88;;;;;;;23.99;41.82;102201.66;4983999;28;20046;-61
2021/03/03 08:18:31;;;;;;;5.18;1.90;;;;;;;23.97;42.09;102184.50;4985858;28;20049;-62
2021/03/03 08:21:20;;;;;;;7.10;1.90;;;;;;;23.95;42.08;102176.44;4994004;28;20030;-62
2021/03/03 08:23:56;;;;;;;7.15;1.98;;;;;;;23.94;43.09;102190.34;4988105;28;20034;-64
2021/03/03 08:26:21;;;;;;;6.25;2.20;;;;;;;23.95;41.85;102178.31;4985632;28;20034;-62
2021/03/03 08:28:51;;;;;;;7.80;2.33;;;;;;;23.90;42.27;102178.00;4984339;28;20069;-62
2021/03/03 08:31:16;;;;;;;9.02;2.50;;;;;;;24.26;43.90;102176.50;4991842;28;20385;-62
2021/03/03 08:33:48;;;;;;;7.18;2.17;;;;;;;24.07;43.43;102165.94;4997205;28;20038;-62
2021/03/03 08:36:24;;;;;;;6.60;2.63;;;;;;;23.97;43.48;102168.03;4986407;28;20501;-62
2021/03/03 08:38:55;;;;;;;6.10;2.08;;;;;;;23.81;44.94;102170.81;4989681;28;20034;-63
2021/03/03 08:41:25;;;;;;;7.18;2.17;;;;;;;23.84;45.26;102168.56;4985770;28;20043;-62
2021/03/03 08:44:00;;;;;;;5.10;2.13;;;;;;;23.81;44.39;102165.31;4980719;28;20026;-63
2021/03/03 08:46:25;;;;;;;6.85;2.10;;;;;;;23.76;43.72;102162.25;4982227;28;20116;-62
2021/03/03 08:48:53;;;;;;;11.40;2.73;;;;;;;23.77;43.22;102159.34;5026856;28;20445;-61
2021/03/03 08:51:29;;;;;;;6.97;2.20;;;;;;;23.60;43.70;102150.28;5021288;28;20287;-63
2021/03/03 08:53:56;;;;;;;7.35;2.53;;;;;;;23.60;44.25;102147.53;5026193;28;20037;-65
2021/03/03 08:56:35;;;;;;;12.85;3.15;;;;;;;23.63;44.18;102152.66;5036285;28;20044;-62
2021/03/03 08:59:03;;;;;;;7.70;2.22;;;;;;;23.66;44.18;102152.31;5032028;28;20104;-64
2021/03/03 09:01:49;;;;;;;9.10;2.40;;;;;;;23.64;45.46;102151.63;5031612;28;20105;-62
2021/03/03 09:04:15;;;;;;;9.68;2.92;;;;;;;23.70;44.80;102137.22;5031378;28;20680;-61
2021/03/03 09:06:46;;;;;;;8.27;2.05;;;;;;;23.73;44.26;102144.25;5031244;28;20408;-63
2021/03/03 09:09:11;;;;;;;7.90;2.97;;;;;;;23.67;44.81;102137.56;5034462;28;20033;-62
2021/03/03 09:11:37;;;;;;;9.13;2.88;;;;;;;23.75;44.44;102122.09;5044993;28;20636;-63
2021/03/03 09:14:02;;;;;;;10.27;2.80;;;;;;;24.05;43.73;102126.78;5034947;28;20068;-62
2021/03/03 09:16:28;;;;;;;7.40;2.45;;;;;;;23.97;44.50;102126.81;5028105;28;20075;-62
2021/03/03 09:19:05;;;;;;;5.75;1.95;;;;;;;23.91;45.08;102119.31;5032123;28;20112;-63
2021/03/03 09:21:31;;;;;;;8.18;2.08;;;;;;;23.90;44.19;102117.59;5031772;28;20018;-62
2021/03/03 09:24:07;;;;;;;7.72;2.22;;;;;;;23.98;45.41;102110.16;5025508;28;20067;-62
2021/03/03 09:26:33;;;;;;;8.40;2.72;;;;;;;23.96;45.13;102098.50;5025050;28;20025;-62
2021/03/03 09:28:58;;;;;;;6.40;2.13;;;;;;;24.07;44.92;102105.50;5020165;28;20472;-63
2021/03/03 09:31:50;;;;;;;10.20;2.80;;;;;;;24.06;44.74;102102.94;5027537;28;20358;-62
2021/03/03 09:34:16;;;;;;;7.20;2.33;;;;;;;24.08;44.23;102090.72;5021444;28;20034;-62
2021/03/03 09:36:41;;;;;;;5.47;2.50;;;;;;;24.10;45.85;102076.81;5022138;28;20037;-62
2021/03/03 09:39:07;;;;;;;5.60;1.95;;;;;;;24.17;45.77;102077.78;5024066;28;20025;-63
2021/03/03 09:41:34;;;;;;;11.05;2.88;;;;;;;24.26;44.47;102088.56;5032279;28;20037;-62
2021/03/03 09:44:02;;;;;;;9.20;2.22;;;;;;;24.26;44.57;102077.56;5023294;28;20453;-63
2021/03/03 09:46:28;;;;;;;9.48;2.72;;;;;;;24.30;44.32;102081.69;5027235;28;20022;-63
2021/03/03 09:48:53;;;;;;;11.18;3.00;;;;;;;24.23;44.83;102057.84;5023692;28;20044;-63
2021/03/03 09:51:18;;;;;;;9.20;2.85;;;;;;;24.35;43.22;102072.03;5022569;28;20544;-63
2021/03/03 09:53:54;;;;;;;9.95;2.67;;;;;;;24.29;43.45;102066.22;5032279;28;20022;-63
2021/03/03 09:56:28;;;;;;;6.85;2.10;;;;;;;24.36;43.56;102065.53;5031541;28;20100;-63
2021/03/03 09:58:54;;;;;;;8.07;2.95;;;;;;;24.61;44.00;102069.78;5018950;28;20540;-64
2021/03/03 10:01:19;;;;;;;9.38;2.58;;;;;;;24.60;43.67;102079.09;5015220;28;20034;-64
2021/03/03 10:03:45;;;;;;;10.55;3.25;;;;;;;24.62;43.28;102079.75;5013287;28;20044;-64
2021/03/03 10:06:10;;;;;;;9.85;2.85;;;;;;;24.69;43.15;102057.84;5014292;28;20022;-63
2021/03/03 10:08:36;;;;;;;6.70;2.20;;;;;;;24.72;42.59;102060.28;5013089;28;20013;-64
2021/03/03 10:11:01;;;;;;;7.70;2.35;;;;;;;24.76;43.44;102045.97;5018674;28;20026;-63
2021/03/03 10:13:27;;;;;;;9.63;2.53;;;;;;;24.57;44.04;102057.47;5028030;28;20044;-63
2021/03/03 10:15:52;;;;;;;8.23;2.95;;;;;;;24.75;42.87;102044.25;5023398;28;20080;-64
2021/03/03 10:18:20;;;;;;;8.00;2.63;;;;;;;25.00;42.91;102035.78;5029395;28;20028;-63
2021/03/03 10:20:56;;;;;;;8.48;2.50;;;;;;;24.99;43.44;102039.56;5021434;28;20032;-65
2021/03/03 10:23:27;;;;;;;8.98;2.63;;;;;;;25.00;43.00;102024.78;5020888;28;20108;-64
2021/03/03 10:26:07;;;;;;;6.85;2.40;;;;;;;25.07;41.97;102031.25;5024158;28;20025;-63
2021/03/03 10:28:33;;;;;;;5.15;1.98;;;;;;;24.65;42.62;102026.28;5021548;28;20021;-63
2021/03/03 10:31:04;;;;;;;7.53;2.03;;;;;;;24.53;42.60;102024.00;5020368;28;20516;-62
2021/03/03 10:33:41;;;;;;;4.75;2.25;;;;;;;24.39;42.48;102021.19;5032820;28;20026;-63
2021/03/03 10:36:28;;;;;;;8.38;2.20;;;;;;;24.47;44.46;102021.09;5031328;28;20108;-63
2021/03/03 10:38:55;;;;;;;6.32;2.08;;;;;;;24.39;42.95;102023.94;5014575;28;20042;-63
2021/03/03 10:41:29;;;;;;;5.93;2.30;;;;;;;24.38;42.70;102019.47;5020578;28;20045;-62
2021/03/03 10:43:54;;;;;;;7.40;2.47;;;;;;;24.39;42.82;102018.44;5031818;28;20029;-63
2021/03/03 10:46:22;;;;;;;6.38;2.05;;;;;;;24.39;42.62;102022.03;5031303;28;20036;-63
2021/03/03 10:48:47;;;;;;;8.30;2.42;;;;;;;24.43;43.14;102017.88;5031878;28;20104;-63
2021/03/03 10:51:16;;;;;;;8.75;2.42;;;;;;;24.51;44.61;102014.19;5027116;28;20183;-63
2021/03/03 10:53:50;;;;;;;9.40;2.40;;;;;;;24.50;43.67;102004.22;5029981;28;20112;-63
2021/03/03 10:56:24;;;;;;;8.95;2.75;;;;;;;24.50;43.22;102012.47;5038620;28;20029;-62
2021/03/03 10:58:50;;;;;;;6.40;2.13;;;;;;;24.52;42.33;101994.78;5029307;28;20049;-63
2021/03/03 11:01:17;;;;;;;7.75;3.03;;;;;;;24.59;43.39;101992.13;5030549;28;20484;-64
2021/03/03 11:03:57;;;;;;;9.63;3.00;;;;;;;24.58;42.81;101994.03;5030020;28;20064;-63
2021/03/03 11:06:26;;;;;;;7.03;2.53;;;;;;;24.64;43.37;101997.94;5016698;28;20025;-63
2021/03/03 11:08:51;;;;;;;8.48;2.10;;;;;;;24.79;43.21;102007.06;5030354;28;20045;-63
2021/03/03 11:11:17;;;;;;;9.68;2.90;;;;;;;24.84;42.29;101999.09;5031117;28;20082;-63
2021/03/03 11:13:42;;;;;;;8.90;2.58;;;;;;;24.89;41.77;101991.19;5031608;28;20532;-63
2021/03/03 11:16:07;;;;;;;10.82;2.50;;;;;;;24.91;41.47;101993.72;5031292;28;20087;-62
2021/03/03 11:18:33;;;;;;;7.45;2.10;;;;;;;25.00;42.24;101980.75;5031941;28;20393;-63
2021/03/03 11:20:59;;;;;;;8.85;2.72;;;;;;;24.84;41.94;101982.59;5031816;28;20018;-63
2021/03/03 11:23:25;;;;;;;11.63;3.15;;;;;;;24.70;42.95;101980.72;5030903;28;20035;-62
2021/03/03 11:25:50;;;;;;;9.80;2.63;;;;;;;24.77;43.26;101970.66;5032115;28;20017;-63
2021/03/03 11:28:16;;;;;;;8.00;2.60;;;;;;;24.94;43.30;101960.34;5031949;28;20029;-63